Time;durP1;ratioP1;P1;durP2;ratioP2;P2;SDS_P1;SDS_P2;PMS_P1;PMS_P2;Temp;Humidity;BMP_temperature;BMP_pressure;BME280_temperature;BME280_humidity;BME280_pressure;Samples;Min_cycle;Max_cycle;Signal;HPM_P1;HPM_P2
2021/03/03 00:00:27;;;;;;;78.22;18.40;;;2.90;1.00;;;;;;5132524;27;20203;-69
2021/03/03 00:02:57;;;;;;;72.90;15.80;;;2.90;1.00;;;;;;5132354;27;20209;-69
2021/03/03 00:05:28;;;;;;;78.93;17.40;;;2.90;1.00;;;;;;5127420;27;20255;-69
2021/03/03 00:07:58;;;;;;;77.82;17.52;;;2.80;1.00;;;;;;5131965;27;20203;-69
2021/03/03 00:10:27;;;;;;;79.63;17.83;;;2.80;1.00;;;;;;5131410;27;20215;-69
2021/03/03 00:12:57;;;;;;;80.10;17.83;;;2.80;1.00;;;;;;5129087;28;20203;-69
2021/03/03 00:15:30;;;;;;;78.03;16.10;;;2.70;1.00;;;;;;5131832;27;20286;-69
2021/03/03 00:18:00;;;;;;;82.03;17.67;;;2.70;1.00;;;;;;5131966;27;20199;-69
2021/03/03 00:20:30;;;;;;;81.72;16.65;;;2.80;1.00;;;;;;5131902;27;20207;-69
2021/03/03 00:23:00;;;;;;;83.65;17.40;;;2.70;1.00;;;;;;5132313;27;20198;-69
2021/03/03 00:25:30;;;;;;;80.07;17.40;;;2.80;1.00;;;;;;5134338;27;20214;-69
2021/03/03 00:28:02;;;;;;;75.22;15.43;;;2.80;1.00;;;;;;5135984;27;20206;-69
2021/03/03 00:30:34;;;;;;;83.43;16.63;;;2.80;1.00;;;;;;5136098;27;20219;-69
2021/03/03 00:33:04;;;;;;;77.60;16.33;;;2.80;1.00;;;;;;5135900;27;20203;-69
2021/03/03 00:35:35;;;;;;;80.40;17.30;;;2.80;1.00;;;;;;5135665;27;20743;-68
2021/03/03 00:38:05;;;;;;;74.90;17.30;;;2.80;1.00;;;;;;5135756;27;20203;-69
2021/03/03 00:40:34;;;;;;;74.10;14.70;;;2.80;1.00;;;;;;5135668;27;20203;-69
2021/03/03 00:43:04;;;;;;;76.90;15.38;;;2.70;1.00;;;;;;5135646;27;20693;-69
2021/03/03 00:45:34;;;;;;;77.05;16.23;;;2.70;1.00;;;;;;5135571;27;20557;-69
2021/03/03 00:48:15;;;;;;;75.32;16.58;;;2.70;1.00;;;;;;5135522;27;20298;-69
2021/03/03 00:50:46;;;;;;;81.97;16.65;;;2.70;1.00;;;;;;5135817;27;20226;-68
2021/03/03 00:53:16;;;;;;;77.75;17.70;;;2.70;1.00;;;;;;5135652;27;20701;-69
2021/03/03 00:55:55;;;;;;;80.95;17.90;;;2.70;1.00;;;;;;5135586;27;20710;-69
2021/03/03 00:58:24;;;;;;;85.78;18.40;;;2.70;1.00;;;;;;5135276;27;20644;-69
2021/03/03 01:00:57;;;;;;;77.57;17.45;;;2.70;1.00;;;;;;5135440;27;20628;-69
2021/03/03 01:03:26;;;;;;;80.65;18.65;;;2.70;1.00;;;;;;5135192;27;20207;-69
2021/03/03 01:05:57;;;;;;;80.57;18.23;;;2.60;1.00;;;;;;5135313;27;20646;-69
2021/03/03 01:08:27;;;;;;;82.50;18.85;;;2.60;1.00;;;;;;5135211;27;20670;-69
2021/03/03 01:10:56;;;;;;;74.00;16.60;;;2.60;1.00;;;;;;5135263;27;20602;-68
2021/03/03 01:13:26;;;;;;;78.68;18.38;;;2.60;1.00;;;;;;5135230;27;20576;-68
2021/03/03 01:15:56;;;;;;;74.78;16.60;;;2.60;1.00;;;;;;5134959;27;20223;-69
2021/03/03 01:18:25;;;;;;;76.85;17.67;;;2.60;1.00;;;;;;5133575;27;20276;-69
2021/03/03 01:20:59;;;;;;;80.55;18.42;;;2.60;1.00;;;;;;5133026;27;20677;-69
2021/03/03 01:23:29;;;;;;;79.00;16.90;;;2.60;1.00;;;;;;5134543;27;20571;-68
2021/03/03 01:25:58;;;;;;;74.30;15.20;;;2.60;1.00;;;;;;5134736;27;20636;-68
2021/03/03 01:28:27;;;;;;;77.50;17.52;;;2.60;1.00;;;;;;5134767;27;20207;-69
2021/03/03 01:30:57;;;;;;;78.75;15.77;;;2.60;1.00;;;;;;5134745;27;20219;-69
2021/03/03 01:33:28;;;;;;;72.88;15.35;;;2.60;1.00;;;;;;5134768;27;20560;-69
2021/03/03 01:35:59;;;;;;;75.53;15.20;;;2.60;1.00;;;;;;5133989;27;20257;-69
2021/03/03 01:38:29;;;;;;;74.75;14.90;;;2.60;1.00;;;;;;5134635;27;20225;-69
2021/03/03 01:40:59;;;;;;;80.72;16.92;;;2.60;1.00;;;;;;5134851;27;20270;-68
2021/03/03 01:43:32;;;;;;;78.00;14.30;;;2.60;1.00;;;;;;5135065;27;20256;-68
2021/03/03 01:46:02;;;;;;;77.35;15.77;;;2.50;1.00;;;;;;5134622;27;20230;-68
2021/03/03 01:48:32;;;;;;;71.45;13.80;;;2.50;1.00;;;;;;5134243;27;20202;-68
2021/03/03 01:51:06;;;;;;;75.45;15.32;;;2.50;1.00;;;;;;5134263;27;20242;-68
2021/03/03 01:53:35;;;;;;;72.07;14.23;;;2.50;1.00;;;;;;5134159;27;20207;-69
2021/03/03 01:56:05;;;;;;;71.28;13.88;;;2.50;1.00;;;;;;5134358;27;20601;-69
2021/03/03 01:58:35;;;;;;;78.20;15.98;;;2.50;1.00;;;;;;5134343;27;20524;-69
2021/03/03 02:01:05;;;;;;;74.93;15.75;;;2.50;1.00;;;;;;5134081;27;20203;-69
2021/03/03 02:03:34;;;;;;;76.00;15.88;;;2.50;1.00;;;;;;5132065;27;20207;-69
2021/03/03 02:06:16;;;;;;;75.63;15.70;;;2.50;1.00;;;;;;5133418;27;20219;-69
2021/03/03 02:08:50;;;;;;;76.93;16.00;;;2.40;1.00;;;;;;5133832;27;20206;-69
2021/03/03 02:11:26;;;;;;;76.10;15.73;;;2.40;1.00;;;;;;5130795;27;20228;-69
2021/03/03 02:13:59;;;;;;;75.38;15.90;;;2.40;1.00;;;;;;5132689;27;20203;-69
2021/03/03 02:16:30;;;;;;;71.07;14.02;;;2.40;1.00;;;;;;5133694;27;20219;-69
2021/03/03 02:19:02;;;;;;;79.78;16.02;;;2.30;1.00;;;;;;5133654;27;20229;-69
2021/03/03 02:21:36;;;;;;;71.38;14.32;;;2.30;1.00;;;;;;5133403;27;20195;-68
2021/03/03 02:24:12;;;;;;;73.70;14.65;;;2.30;1.00;;;;;;5133501;27;20217;-69
2021/03/03 02:26:47;;;;;;;75.63;17.05;;;2.20;1.00;;;;;;5133612;27;20223;-69
2021/03/03 02:29:27;;;;;;;73.25;15.00;;;2.20;1.00;;;;;;5133714;27;20198;-69
2021/03/03 02:31:58;;;;;;;76.32;16.40;;;2.20;1.00;;;;;;5133503;27;20219;-69
2021/03/03 02:34:30;;;;;;;75.70;14.32;;;2.20;1.00;;;;;;5133369;27;20211;-69
2021/03/03 02:37:00;;;;;;;73.55;14.75;;;2.20;1.00;;;;;;5133448;27;20223;-69
2021/03/03 02:39:31;;;;;;;79.00;15.98;;;2.20;1.00;;;;;;5133553;27;20202;-69
2021/03/03 02:42:02;;;;;;;79.68;15.52;;;2.20;1.00;;;;;;5133374;27;20251;-69
2021/03/03 02:44:34;;;;;;;71.60;15.43;;;2.10;1.00;;;;;;5133414;27;20206;-69
2021/03/03 02:47:05;;;;;;;81.20;18.23;;;2.10;1.00;;;;;;5132187;27;20223;-69
2021/03/03 02:49:36;;;;;;;80.50;15.40;;;2.10;1.00;;;;;;5133179;27;20203;-69
2021/03/03 02:52:06;;;;;;;75.32;15.68;;;2.10;1.00;;;;;;5133082;27;20222;-69
2021/03/03 02:54:36;;;;;;;76.25;16.50;;;2.10;1.00;;;;;;5133150;27;20214;-69
2021/03/03 02:57:07;;;;;;;79.72;15.43;;;2.10;1.00;;;;;;5133092;27;20234;-69
2021/03/03 02:59:39;;;;;;;73.57;15.75;;;2.10;1.00;;;;;;5132996;27;20187;-69
2021/03/03 03:02:12;;;;;;;75.35;15.93;;;2.10;1.00;;;;;;5133052;27;20198;-69
2021/03/03 03:04:44;;;;;;;77.82;16.98;;;2.10;1.00;;;;;;5132411;27;20255;-69
2021/03/03 03:07:17;;;;;;;75.80;16.33;;;2.10;1.00;;;;;;5132853;27;20227;-68
2021/03/03 03:09:48;;;;;;;77.57;16.17;;;2.10;1.00;;;;;;5132838;27;20239;-68
2021/03/03 03:12:19;;;;;;;78.15;16.45;;;2.10;1.00;;;;;;5132515;27;20223;-68
2021/03/03 03:14:51;;;;;;;76.80;16.30;;;2.10;1.00;;;;;;5132828;27;20221;-68
2021/03/03 03:17:25;;;;;;;86.43;17.15;;;2.10;1.00;;;;;;5132712;27;20222;-68
2021/03/03 03:19:56;;;;;;;81.30;16.33;;;2.10;1.00;;;;;;5132547;27;20210;-68
2021/03/03 03:22:27;;;;;;;77.22;16.40;;;2.10;1.00;;;;;;5132423;27;20199;-68
2021/03/03 03:24:57;;;;;;;80.25;17.33;;;2.10;1.00;;;;;;5132796;27;20243;-68
2021/03/03 03:27:27;;;;;;;83.20;16.63;;;2.10;1.00;;;;;;5132731;27;20226;-68
2021/03/03 03:29:57;;;;;;;74.10;14.63;;;2.10;1.00;;;;;;5132155;27;20649;-68
2021/03/03 03:32:27;;;;;;;80.72;17.35;;;2.10;1.00;;;;;;5132473;27;20227;-68
2021/03/03 03:34:58;;;;;;;81.28;17.75;;;2.10;1.00;;;;;;5132313;27;20214;-68
2021/03/03 03:37:31;;;;;;;77.65;17.52;;;2.10;1.00;;;;;;5132306;27;20226;-68
2021/03/03 03:40:02;;;;;;;80.50;17.23;;;2.10;1.00;;;;;;5132468;27;20207;-68
2021/03/03 03:42:33;;;;;;;76.53;16.92;;;2.10;1.00;;;;;;5132622;27;20698;-68
2021/03/03 03:45:04;;;;;;;78.57;17.25;;;2.10;1.00;;;;;;5132520;27;20209;-68
2021/03/03 03:47:38;;;;;;;81.95;18.45;;;2.10;1.00;;;;;;5131705;27;20223;-68
2021/03/03 03:50:08;;;;;;;79.60;17.00;;;2.10;1.00;;;;;;5132380;27;20247;-68
2021/03/03 03:52:38;;;;;;;82.88;19.17;;;2.10;1.00;;;;;;5132150;27;20230;-68
2021/03/03 03:55:09;;;;;;;79.20;16.45;;;2.10;1.00;;;;;;5132289;27;20218;-68
2021/03/03 03:57:49;;;;;;;82.10;18.60;;;2.10;1.00;;;;;;5132197;27;20227;-68
2021/03/03 04:00:21;;;;;;;77.72;17.85;;;2.00;1.00;;;;;;5136544;27;20218;-68
2021/03/03 04:02:52;;;;;;;78.13;18.05;;;2.00;1.00;;;;;;5136462;27;20254;-68
2021/03/03 04:05:22;;;;;;;80.25;18.15;;;2.00;1.00;;;;;;5134679;27;20202;-68
2021/03/03 04:07:52;;;;;;;82.30;18.95;;;1.90;1.00;;;;;;5136270;27;20202;-68
2021/03/03 04:10:23;;;;;;;84.85;20.80;;;1.90;1.00;;;;;;5130690;27;20203;-68
2021/03/03 04:12:56;;;;;;;84.60;19.02;;;1.90;1.00;;;;;;5131248;27;20212;-68
2021/03/03 04:15:25;;;;;;;81.32;19.73;;;1.90;1.00;;;;;;5136289;27;20206;-68
2021/03/03 04:17:55;;;;;;;81.82;18.88;;;1.90;1.00;;;;;;5136442;27;20195;-68
2021/03/03 04:20:25;;;;;;;82.32;18.98;;;1.90;1.00;;;;;;5136012;27;20210;-68
2021/03/03 04:22:55;;;;;;;79.68;19.65;;;1.90;1.00;;;;;;5135907;27;20251;-68
2021/03/03 04:25:25;;;;;;;81.70;19.17;;;1.90;1.00;;;;;;5136191;27;20206;-68
2021/03/03 04:27:55;;;;;;;76.40;17.98;;;1.90;1.00;;;;;;5136054;27;20206;-68
2021/03/03 04:30:25;;;;;;;87.80;20.20;;;1.90;1.00;;;;;;5135478;27;20289;-68
2021/03/03 04:32:55;;;;;;;83.20;20.48;;;1.90;1.00;;;;;;5135490;27;20214;-67
2021/03/03 04:35:25;;;;;;;85.72;20.67;;;1.90;1.00;;;;;;5135384;27;20279;-68
2021/03/03 04:37:55;;;;;;;84.28;20.85;;;1.90;1.00;;;;;;5135854;27;20203;-68
2021/03/03 04:40:24;;;;;;;82.53;19.55;;;1.90;1.00;;;;;;5135797;27;20214;-68
2021/03/03 04:42:54;;;;;;;84.35;19.27;;;1.90;1.00;;;;;;5135615;27;20198;-68
2021/03/03 04:45:24;;;;;;;77.68;20.30;;;1.90;1.00;;;;;;5135730;27;20286;-68
2021/03/03 04:47:54;;;;;;;85.80;20.60;;;1.90;1.00;;;;;;5135752;27;20206;-68
2021/03/03 04:50:23;;;;;;;85.97;19.55;;;1.90;1.00;;;;;;5135461;27;20199;-68
2021/03/03 04:52:53;;;;;;;78.35;19.02;;;1.80;1.00;;;;;;5135681;27;20318;-68
2021/03/03 04:55:23;;;;;;;87.72;20.92;;;1.80;1.00;;;;;;5135668;27;20214;-68
2021/03/03 04:57:53;;;;;;;84.18;20.20;;;1.90;1.00;;;;;;5135526;27;20681;-68
2021/03/03 05:00:25;;;;;;;79.78;19.23;;;1.90;1.00;;;;;;5135198;27;20202;-68
2021/03/03 05:02:55;;;;;;;82.25;20.60;;;1.90;1.00;;;;;;5135368;27;20229;-68
2021/03/03 05:05:25;;;;;;;79.38;19.20;;;1.90;1.00;;;;;;5135262;27;20784;-68
2021/03/03 05:07:54;;;;;;;82.97;20.45;;;1.90;1.00;;;;;;5135290;27;20210;-68
2021/03/03 05:10:24;;;;;;;84.60;20.83;;;1.90;1.00;;;;;;5134256;27;20206;-68
2021/03/03 05:12:57;;;;;;;86.45;22.27;;;1.90;1.00;;;;;;5134953;27;20219;-68
2021/03/03 05:15:28;;;;;;;83.70;20.98;;;1.90;1.00;;;;;;5135047;27;20207;-68
2021/03/03 05:18:01;;;;;;;80.63;20.88;;;1.90;1.00;;;;;;5135189;27;20659;-68
2021/03/03 05:20:31;;;;;;;81.68;19.50;;;1.90;1.00;;;;;;5135272;27;20666;-68
2021/03/03 05:23:01;;;;;;;86.85;20.90;;;1.90;1.00;;;;;;5134953;27;20582;-68
2021/03/03 05:25:31;;;;;;;86.45;22.50;;;1.90;1.00;;;;;;5135246;27;20688;-68
2021/03/03 05:28:01;;;;;;;80.60;19.67;;;1.90;1.00;;;;;;5135270;27;20210;-68
2021/03/03 05:30:33;;;;;;;86.60;23.60;;;1.90;1.00;;;;;;5134723;27;20203;-68
2021/03/03 05:33:03;;;;;;;94.93;21.48;;;1.90;1.00;;;;;;5134679;27;20203;-68
2021/03/03 05:35:33;;;;;;;84.28;20.70;;;1.90;1.00;;;;;;5134513;27;20701;-68
2021/03/03 05:38:02;;;;;;;78.78;20.40;;;1.90;1.00;;;;;;5134801;27;20203;-68
2021/03/03 05:40:34;;;;;;;83.13;20.67;;;1.90;1.00;;;;;;5128766;27;20570;-69
2021/03/03 05:43:04;;;;;;;78.40;19.98;;;1.90;1.00;;;;;;5130783;27;20573;-68
2021/03/03 05:48:27;;;;;;;85.85;20.95;;;1.90;1.00;;;;;;5118360;27;20676;-68
2021/03/03 05:51:00;;;;;;;84.32;20.42;;;1.80;1.00;;;;;;5134275;27;20658;-68
2021/03/03 05:53:30;;;;;;;86.13;22.52;;;1.80;1.00;;;;;;5134369;27;20568;-69
2021/03/03 05:56:04;;;;;;;79.80;19.30;;;1.80;1.00;;;;;;5134361;27;20582;-69
2021/03/03 05:58:36;;;;;;;82.55;18.85;;;1.80;1.00;;;;;;5134287;27;20799;-69
2021/03/03 06:01:08;;;;;;;85.68;20.42;;;1.70;1.00;;;;;;5134192;27;20575;-69
2021/03/03 06:03:40;;;;;;;85.45;20.75;;;1.70;1.00;;;;;;5126722;27;20199;-69
2021/03/03 06:06:10;;;;;;;83.28;22.20;;;1.70;1.00;;;;;;5126237;27;20678;-69
2021/03/03 06:08:40;;;;;;;82.90;21.40;;;1.70;1.00;;;;;;5133980;27;20574;-69
2021/03/03 06:11:12;;;;;;;82.38;22.55;;;1.70;1.00;;;;;;5122706;27;20562;-68
2021/03/03 06:13:42;;;;;;;90.25;21.60;;;1.70;1.00;;;;;;5131567;27;20214;-68
2021/03/03 06:16:14;;;;;;;83.38;21.05;;;1.70;1.00;;;;;;5133869;27;20279;-69
2021/03/03 06:18:44;;;;;;;84.55;20.27;;;1.70;1.00;;;;;;5134016;27;20224;-68
2021/03/03 06:21:28;;;;;;;83.68;19.52;;;1.70;1.00;;;;;;5133630;27;20307;-68
2021/03/03 06:24:06;;;;;;;85.93;22.15;;;1.80;1.00;;;;;;5133651;27;20216;-68
2021/03/03 06:26:37;;;;;;;83.10;21.02;;;1.80;1.00;;;;;;5134217;27;20271;-69
2021/03/03 06:29:15;;;;;;;87.72;20.15;;;1.80;1.00;;;;;;5133813;27;20203;-67
2021/03/03 06:31:48;;;;;;;80.88;19.48;;;1.90;1.00;;;;;;5133588;27;20278;-66
2021/03/03 06:34:20;;;;;;;83.50;22.58;;;1.90;1.00;;;;;;5133586;27;20215;-67
2021/03/03 06:36:52;;;;;;;89.53;24.33;;;1.90;1.00;;;;;;5133527;27;20230;-67
2021/03/03 06:39:26;;;;;;;88.13;23.85;;;2.00;1.00;;;;;;5133718;27;20336;-67
2021/03/03 06:41:56;;;;;;;82.18;21.00;;;2.00;1.00;;;;;;5133426;27;20217;-67
2021/03/03 06:44:27;;;;;;;86.68;23.85;;;2.10;1.00;;;;;;5133389;27;20242;-68
2021/03/03 06:47:11;;;;;;;86.78;24.75;;;2.10;1.00;;;;;;5130008;27;20269;-68
2021/03/03 06:49:43;;;;;;;86.00;24.42;;;2.20;1.00;;;;;;5129816;27;20199;-68
2021/03/03 06:52:13;;;;;;;89.20;24.05;;;2.20;1.00;;;;;;5125704;27;20215;-68
2021/03/03 06:54:43;;;;;;;83.28;22.10;;;2.30;1.00;;;;;;5132852;27;20210;-68
2021/03/03 06:57:14;;;;;;;82.28;20.10;;;2.40;1.00;;;;;;5133150;27;20226;-68
2021/03/03 06:59:45;;;;;;;87.43;21.17;;;2.40;1.00;;;;;;5133005;27;20248;-68
2021/03/03 07:02:19;;;;;;;90.57;22.75;;;2.50;1.00;;;;;;5133222;27;20252;-68
2021/03/03 07:05:02;;;;;;;85.35;23.63;;;2.60;1.00;;;;;;5133029;27;20251;-68
2021/03/03 07:07:31;;;;;;;85.82;22.33;;;2.70;1.00;;;;;;5127441;27;20302;-68
2021/03/03 07:10:01;;;;;;;82.10;22.33;;;2.70;1.00;;;;;;5132029;27;20203;-68
2021/03/03 07:12:36;;;;;;;85.40;20.33;;;2.80;1.00;;;;;;5132482;27;20219;-68
2021/03/03 07:15:07;;;;;;;83.97;20.92;;;2.90;1.00;;;;;;5132559;27;20689;-68
2021/03/03 07:17:43;;;;;;;87.88;22.58;;;2.90;1.00;;;;;;5132732;27;20230;-68
2021/03/03 07:20:16;;;;;;;97.18;22.77;;;3.00;1.00;;;;;;5132791;27;20718;-67
2021/03/03 07:22:49;;;;;;;79.95;20.45;;;3.00;1.00;;;;;;5132184;27;20195;-67
2021/03/03 07:25:20;;;;;;;87.45;23.45;;;3.00;1.00;;;;;;5132845;27;20210;-67
2021/03/03 07:27:50;;;;;;;85.65;22.10;;;3.10;1.00;;;;;;5132729;27;20273;-67
2021/03/03 07:30:21;;;;;;;84.03;21.50;;;3.10;1.00;;;;;;5132501;27;20203;-67
2021/03/03 07:32:53;;;;;;;86.57;21.85;;;3.10;1.00;;;;;;5132318;27;20219;-67
2021/03/03 07:35:25;;;;;;;85.82;22.33;;;3.10;1.00;;;;;;5132305;27;20214;-67
2021/03/03 07:38:00;;;;;;;81.90;20.98;;;3.20;1.00;;;;;;5132595;27;20242;-67
2021/03/03 07:40:31;;;;;;;87.50;23.40;;;3.30;1.00;;;;;;5132808;27;20205;-67
2021/03/03 07:43:03;;;;;;;85.53;23.63;;;3.30;1.00;;;;;;5132733;27;20249;-67
2021/03/03 07:45:38;;;;;;;90.75;23.98;;;3.40;1.00;;;;;;5132623;27;20203;-67
2021/03/03 07:48:15;;;;;;;85.20;22.13;;;3.50;1.00;;;;;;5132579;27;20202;-67
2021/03/03 07:50:47;;;;;;;86.55;21.20;;;3.60;1.00;;;;;;5133088;27;20210;-67
2021/03/03 07:53:20;;;;;;;84.97;22.75;;;3.70;1.00;;;;;;5125687;27;20202;-67
2021/03/03 07:55:51;;;;;;;88.80;22.88;;;3.80;1.00;;;;;;5132042;27;20219;-67
2021/03/03 07:58:23;;;;;;;85.10;22.50;;;3.90;1.00;;;;;;5132288;27;20199;-67
2021/03/03 08:00:53;;;;;;;95.97;24.70;;;4.00;1.00;;;;;;5132363;27;20297;-67
2021/03/03 08:03:46;;;;;;;84.25;21.10;;;4.10;1.00;;;;;;5132221;27;20300;-67
2021/03/03 08:06:35;;;;;;;87.85;23.08;;;4.20;1.00;;;;;;5116638;27;20223;-67
2021/03/03 08:09:13;;;;;;;86.15;24.95;;;4.30;1.00;;;;;;5100581;27;20706;-68
2021/03/03 08:11:44;;;;;;;85.75;23.75;;;4.40;1.00;;;;;;5128537;28;20782;-67
2021/03/03 08:14:32;;;;;;;85.80;23.63;;;4.50;1.00;;;;;;5132082;27;20225;-67
2021/03/03 08:17:03;;;;;;;87.78;23.35;;;4.60;1.00;;;;;;5132173;27;20235;-68
2021/03/03 08:19:59;;;;;;;84.03;20.90;;;4.70;1.00;;;;;;5132144;27;20202;-67
2021/03/03 08:22:58;;;;;;;81.60;21.30;;;4.80;1.00;;;;;;5131955;27;20285;-67
2021/03/03 08:25:47;;;;;;;84.88;21.13;;;4.90;1.00;;;;;;5097131;27;20203;-67
2021/03/03 08:28:27;;;;;;;86.68;22.35;;;5.00;1.00;;;;;;5131905;27;20213;-67
2021/03/03 08:31:32;;;;;;;88.03;23.58;;;5.10;1.00;;;;;;5131852;27;20203;-67
2021/03/03 08:34:05;;;;;;;81.57;21.23;;;5.20;1.00;;;;;;5131814;27;20204;-67
2021/03/03 08:36:59;;;;;;;96.10;23.88;;;5.20;1.00;;;;;;5131815;27;20223;-67
2021/03/03 08:39:31;;;;;;;81.85;21.88;;;5.30;1.00;;;;;;5132135;27;20207;-67
2021/03/03 08:42:24;;;;;;;83.47;20.80;;;5.40;1.00;;;;;;5132060;27;20203;-67
2021/03/03 08:45:01;;;;;;;83.63;22.10;;;5.50;1.00;;;;;;5131853;27;20203;-67
2021/03/03 08:47:58;;;;;;;80.80;20.83;;;5.60;1.00;;;;;;5135660;27;20279;-67
2021/03/03 08:50:46;;;;;;;88.25;21.38;;;5.70;1.00;;;;;;5135864;27;20210;-67
2021/03/03 08:53:34;;;;;;;85.57;23.65;;;5.80;1.00;;;;;;5135325;27;20275;-67
2021/03/03 08:56:37;;;;;;;83.75;21.70;;;5.90;1.00;;;;;;5135447;27;20276;-66
2021/03/03 08:59:08;;;;;;;83.35;21.60;;;6.10;1.00;;;;;;5135069;27;20238;-67
2021/03/03 09:01:57;;;;;;;85.13;22.00;;;6.20;1.00;;;;;;5135513;27;20574;-67
2021/03/03 09:04:30;;;;;;;80.57;19.83;;;6.40;1.00;;;;;;5135552;27;20199;-68
2021/03/03 09:07:00;;;;;;;89.88;23.00;;;6.50;1.00;;;;;;5135528;27;20268;-67
2021/03/03 09:09:36;;;;;;;85.82;20.30;;;6.50;1.00;;;;;;5135347;27;20217;-67
2021/03/03 09:12:07;;;;;;;87.15;22.90;;;6.70;1.00;;;;;;5135176;27;20230;-67
2021/03/03 09:14:38;;;;;;;80.18;20.70;;;6.80;1.00;;;;;;5135315;27;20570;-67
2021/03/03 09:17:09;;;;;;;84.97;21.98;;;6.90;1.00;;;;;;5135142;27;20223;-68
2021/03/03 09:19:39;;;;;;;82.25;21.52;;;6.90;1.00;;;;;;5135311;27;20248;-67
2021/03/03 09:22:22;;;;;;;83.60;21.85;;;7.00;1.00;;;;;;5135270;27;20206;-67
2021/03/03 09:24:54;;;;;;;84.97;21.85;;;7.20;1.00;;;;;;5134979;27;20214;-67
2021/03/03 09:27:27;;;;;;;81.75;21.23;;;7.40;1.00;;;;;;5134886;27;20231;-67
2021/03/03 09:29:59;;;;;;;82.95;21.10;;;7.60;1.00;;;;;;5135014;27;20203;-68
2021/03/03 09:32:30;;;;;;;88.18;23.00;;;7.90;1.00;;;;;;5134962;27;20223;-68
2021/03/03 09:35:02;;;;;;;83.93;21.15;;;8.10;1.00;;;;;;5134870;27;20215;-68
2021/03/03 09:37:39;;;;;;;81.07;20.40;;;8.20;1.00;;;;;;5134550;27;20228;-67
2021/03/03 09:40:11;;;;;;;81.32;20.88;;;8.30;1.00;;;;;;5134778;27;20705;-68
2021/03/03 09:42:42;;;;;;;82.60;22.17;;;8.30;1.00;;;;;;5134527;27;20230;-68
2021/03/03 09:45:16;;;;;;;82.43;19.95;;;8.40;1.00;;;;;;5134589;27;20207;-68
2021/03/03 09:47:47;;;;;;;82.00;20.63;;;8.40;1.00;;;;;;5134549;27;20698;-67
2021/03/03 09:50:18;;;;;;;78.80;19.67;;;8.50;1.00;;;;;;5134278;27;20468;-67
2021/03/03 09:52:49;;;;;;;82.40;21.35;;;8.50;1.00;;;;;;5134454;27;20276;-68
2021/03/03 09:55:25;;;;;;;81.78;20.95;;;8.60;1.00;;;;;;5134634;27;20290;-68
2021/03/03 09:58:02;;;;;;;89.73;20.70;;;8.70;1.00;;;;;;5134101;27;20215;-68
2021/03/03 10:00:38;;;;;;;83.32;20.73;;;8.80;1.00;;;;;;5134536;27;20952;-68
2021/03/03 10:03:09;;;;;;;79.40;19.23;;;9.00;1.00;;;;;;5134375;27;20668;-67
2021/03/03 10:05:39;;;;;;;84.30;20.80;;;9.10;1.00;;;;;;5134302;27;20969;-68
2021/03/03 10:08:13;;;;;;;92.47;21.70;;;9.30;1.00;;;;;;5134725;27;20450;-68
2021/03/03 10:10:47;;;;;;;81.07;22.00;;;9.40;1.00;;;;;;5134152;27;20943;-68
2021/03/03 10:13:22;;;;;;;84.70;20.50;;;9.60;1.00;;;;;;5133904;27;20479;-68
2021/03/03 10:15:52;;;;;;;76.67;19.20;;;9.80;1.00;;;;;;5133920;27;20951;-68
2021/03/03 10:18:21;;;;;;;80.53;20.87;;;10.00;1.00;;;;;;5134067;27;20969;-68
2021/03/03 10:20:54;;;;;;;83.30;20.37;;;10.10;1.00;;;;;;5134037;27;20965;-68
2021/03/03 10:23:25;;;;;;;78.70;19.70;;;10.20;1.00;;;;;;5133781;27;20969;-68
2021/03/03 10:26:01;;;;;;;82.70;20.70;;;10.40;1.00;;;;;;5132682;27;20930;-67
2021/03/03 10:28:30;;;;;;;79.77;20.37;;;10.50;1.00;;;;;;5126520;27;20459;-68
2021/03/03 10:31:02;;;;;;;77.83;20.00;;;10.50;1.00;;;;;;5127553;27;20969;-68
2021/03/03 10:33:35;;;;;;;78.57;19.17;;;10.60;1.00;;;;;;5124993;27;20530;-68
2021/03/03 10:36:05;;;;;;;81.50;18.83;;;10.70;1.00;;;;;;5129499;27;20479;-68
2021/03/03 10:38:35;;;;;;;84.43;20.47;;;10.80;1.00;;;;;;5124844;27;20895;-68
2021/03/03 10:41:06;;;;;;;76.00;19.70;;;10.90;1.00;;;;;;5127375;27;20964;-68
2021/03/03 10:43:49;;;;;;;82.37;19.33;;;11.10;1.00;;;;;;5133208;27;20447;-68
2021/03/03 10:46:20;;;;;;;79.63;20.17;;;11.30;1.00;;;;;;5112753;28;20812;-68
2021/03/03 10:48:50;;;;;;;77.43;20.03;;;11.50;1.00;;;;;;5124680;27;20808;-68
2021/03/03 10:51:22;;;;;;;80.87;20.60;;;11.70;1.00;;;;;;5132474;27;20463;-68
2021/03/03 10:53:53;;;;;;;79.47;19.97;;;11.90;1.00;;;;;;5133242;27;20818;-68
2021/03/03 10:56:34;;;;;;;78.40;18.70;;;12.10;1.00;;;;;;5133025;27;20529;-68
2021/03/03 10:59:05;;;;;;;81.83;21.10;;;12.40;1.00;;;;;;5133048;27;20447;-68
2021/03/03 11:01:45;;;;;;;79.80;20.20;;;12.60;1.00;;;;;;5133495;27;20443;-67
2021/03/03 11:04:14;;;;;;;81.37;19.90;;;12.90;1.00;;;;;;5132919;27;20479;-68
2021/03/03 11:06:44;;;;;;;82.57;20.30;;;13.10;1.00;;;;;;5132930;27;20511;-68
2021/03/03 11:09:15;;;;;;;77.93;19.20;;;13.50;1.00;;;;;;5132121;27;20445;-68
2021/03/03 11:11:54;;;;;;;78.83;20.33;;;13.70;1.00;;;;;;5132822;27;20480;-68
2021/03/03 11:14:24;;;;;;;75.63;18.80;;;13.90;1.00;;;;;;5132880;27;20531;-68
2021/03/03 11:16:55;;;;;;;74.93;18.70;;;14.00;1.00;;;;;;5132031;27;20466;-68
2021/03/03 11:19:25;;;;;;;78.53;20.47;;;14.10;1.00;;;;;;5132597;27;20440;-67
2021/03/03 11:21:56;;;;;;;78.67;19.27;;;14.20;1.00;;;;;;5133420;27;20432;-67
2021/03/03 11:24:27;;;;;;;77.40;18.40;;;14.30;1.00;;;;;;5132943;27;20456;-67
2021/03/03 11:27:01;;;;;;;79.60;19.70;;;14.40;1.00;;;;;;5132856;27;20460;-67
2021/03/03 11:29:31;;;;;;;80.47;20.10;;;14.70;1.00;;;;;;5132188;27;20440;-67
2021/03/03 11:32:01;;;;;;;77.20;18.67;;;15.00;1.00;;;;;;5132856;27;20472;-68
2021/03/03 11:34:31;;;;;;;75.50;17.10;;;15.40;1.00;;;;;;5132387;27;20456;-67
2021/03/03 11:37:00;;;;;;;75.57;18.20;;;15.60;1.00;;;;;;5132448;27;20461;-67
2021/03/03 11:39:27;;;;;;;77.40;18.37;;;15.50;1.00;;;;;;5132532;27;20497;-67
2021/03/03 11:41:57;;;;;;;77.13;18.87;;;15.50;1.00;;;;;;5132809;27;20441;-67
2021/03/03 11:44:28;;;;;;;79.47;19.97;;;15.60;1.00;;;;;;5132300;27;20445;-67
2021/03/03 11:46:58;;;;;;;76.37;18.70;;;15.70;1.00;;;;;;5132257;27;20461;-68
2021/03/03 11:49:28;;;;;;;74.90;17.33;;;15.90;1.00;;;;;;5132433;27;20437;-67
2021/03/03 11:51:58;;;;;;;82.87;18.40;;;16.00;1.00;;;;;;5132170;27;20479;-67
2021/03/03 11:54:27;;;;;;;78.23;19.03;;;16.10;1.00;;;;;;5132371;27;20436;-67
2021/03/03 11:56:57;;;;;;;75.50;16.80;;;16.30;1.00;;;;;;5131683;27;20473;-67
2021/03/03 11:59:28;;;;;;;74.80;18.50;;;16.70;1.00;;;;;;5131892;27;20454;-66
2021/03/03 12:01:59;;;;;;;76.70;18.77;;;17.00;1.00;;;;;;5132239;27;20445;-66
2021/03/03 12:04:29;;;;;;;76.27;17.93;;;17.20;1.00;;;;;;5126492;28;20453;-68
2021/03/03 12:06:59;;;;;;;76.50;19.03;;;17.30;1.00;;;;;;5132254;27;20528;-67
2021/03/03 12:09:29;;;;;;;73.50;17.70;;;17.30;1.00;;;;;;5131898;27;20447;-67
2021/03/03 12:11:59;;;;;;;81.53;19.17;;;17.40;1.00;;;;;;5131785;27;20492;-67
2021/03/03 12:14:30;;;;;;;75.73;17.87;;;17.30;1.00;;;;;;5132139;27;20442;-68
2021/03/03 12:17:00;;;;;;;78.40;19.00;;;17.30;1.00;;;;;;5132269;27;20473;-68
2021/03/03 12:19:29;;;;;;;77.10;18.50;;;17.10;1.00;;;;;;5133076;27;20452;-67
2021/03/03 12:21:59;;;;;;;83.90;20.03;;;17.10;1.00;;;;;;5136026;27;20447;-68
2021/03/03 12:24:29;;;;;;;74.90;17.77;;;17.10;1.00;;;;;;5136286;27;20453;-68
2021/03/03 12:26:59;;;;;;;75.33;17.60;;;17.20;1.00;;;;;;5136034;27;20465;-68
2021/03/03 12:29:30;;;;;;;78.03;17.10;;;17.30;1.00;;;;;;5136656;27;20441;-67
2021/03/03 12:32:00;;;;;;;75.27;18.70;;;17.30;1.00;;;;;;5135979;27;20942;-67
2021/03/03 12:34:30;;;;;;;74.17;18.80;;;17.20;1.00;;;;;;5135792;27;20463;-67
2021/03/03 12:37:00;;;;;;;75.43;17.83;;;17.00;1.00;;;;;;5135909;27;20466;-68
2021/03/03 12:39:30;;;;;;;79.47;19.07;;;16.80;1.00;;;;;;5135907;27;20499;-67
2021/03/03 12:42:00;;;;;;;78.17;18.57;;;16.70;1.00;;;;;;5136061;27;20446;-68
2021/03/03 12:44:30;;;;;;;77.97;18.73;;;16.70;1.00;;;;;;5135858;27;20449;-68
2021/03/03 12:47:00;;;;;;;77.70;18.47;;;16.70;1.00;;;;;;5135799;27;20461;-68
2021/03/03 12:49:30;;;;;;;75.80;16.63;;;16.70;1.00;;;;;;5135650;27;20451;-68
2021/03/03 12:52:03;;;;;;;74.07;17.83;;;16.70;1.00;;;;;;5130276;27;20486;-68
2021/03/03 12:54:35;;;;;;;79.60;18.70;;;16.80;1.00;;;;;;5135486;27;20449;-68
2021/03/03 12:57:05;;;;;;;72.00;16.90;;;17.00;1.00;;;;;;5135309;27;20531;-68
2021/03/03 12:59:36;;;;;;;76.87;17.70;;;17.10;1.00;;;;;;5135306;27;20453;-68
2021/03/03 13:02:06;;;;;;;77.67;18.50;;;17.30;1.00;;;;;;5135173;27;20443;-68
2021/03/03 13:04:35;;;;;;;78.10;18.57;;;17.40;1.00;;;;;;5135518;27;20450;-68
2021/03/03 13:07:05;;;;;;;80.60;17.00;;;17.50;1.00;;;;;;5135245;27;20467;-67
2021/03/03 13:09:35;;;;;;;74.30;17.93;;;17.50;1.00;;;;;;5135208;27;20450;-68
2021/03/03 13:12:05;;;;;;;74.90;17.83;;;17.50;1.00;;;;;;5133706;27;20486;-68
2021/03/03 13:14:36;;;;;;;75.63;17.93;;;17.50;1.00;;;;;;5135213;27;20455;-68